Time;durP1;ratioP1;P1;durP2;ratioP2;P2;SDS_P1;SDS_P2;PMS_P1;PMS_P2;Temp;Humidity;BMP_temperature;BMP_pressure;BME280_temperature;BME280_humidity;BME280_pressure;Samples;Min_cycle;Max_cycle;Signal;HPM_P1;HPM_P2
2022/05/31 00:02:08;;;;;;;7.45;4.93;;;9.70;99.90;;;;;;4934960;29;20539;-53
2022/05/31 00:04:34;;;;;;;7.00;4.28;;;9.70;99.90;;;;;;4967254;28;20043;-50
2022/05/31 00:07:00;;;;;;;8.15;4.82;;;9.70;99.90;;;;;;4981993;28;20070;-49
2022/05/31 00:09:26;;;;;;;9.18;4.82;;;9.70;99.90;;;;;;4983312;28;20051;-52
2022/05/31 00:11:53;;;;;;;7.45;4.80;;;9.70;99.90;;;;;;4982070;28;20043;-53
2022/05/31 00:14:19;;;;;;;9.23;5.65;;;9.70;99.90;;;;;;4965052;28;20039;-52
2022/05/31 00:16:47;;;;;;;7.63;4.70;;;9.70;99.90;;;;;;4981930;28;20129;-51
2022/05/31 00:19:14;;;;;;;9.57;5.32;;;9.60;99.90;;;;;;4982249;28;20479;-53
2022/05/31 00:22:11;;;;;;;9.00;5.63;;;9.70;99.90;;;;;;4982536;28;20054;-50
2022/05/31 00:24:39;;;;;;;8.75;5.35;;;9.60;99.90;;;;;;4965873;28;20067;-49
2022/05/31 00:27:09;;;;;;;8.95;5.47;;;9.50;99.90;;;;;;4982245;28;20046;-53
2022/05/31 00:29:35;;;;;;;11.57;5.32;;;9.60;99.90;;;;;;4982293;28;20058;-52
2022/05/31 00:32:04;;;;;;;8.85;5.90;;;9.60;99.90;;;;;;4976498;28;20049;-52
2022/05/31 00:34:32;;;;;;;9.18;5.40;;;9.60;99.90;;;;;;4950532;29;20073;-51
2022/05/31 00:36:58;;;;;;;7.60;5.35;;;9.70;99.90;;;;;;4942818;29;20129;-48
2022/05/31 00:39:24;;;;;;;9.13;5.57;;;9.70;99.90;;;;;;4953969;29;20121;-52
2022/05/31 00:42:18;;;;;;;8.82;5.30;;;9.70;99.90;;;;;;4961855;29;20102;-54
2022/05/31 00:44:43;;;;;;;8.13;5.40;;;9.60;99.90;;;;;;4943407;29;20145;-52
2022/05/31 00:47:30;;;;;;;8.38;5.88;;;9.70;99.90;;;;;;4943636;29;20059;-50
2022/05/31 00:50:03;;;;;;;8.15;5.20;;;9.70;99.90;;;;;;4959119;29;20061;-53
2022/05/31 00:52:40;;;;;;;9.43;5.32;;;9.70;99.90;;;;;;4945746;29;20059;-52
2022/05/31 00:55:19;;;;;;;7.65;5.13;;;9.70;99.90;;;;;;4949683;29;20047;-54
2022/05/31 00:58:00;;;;;;;9.05;5.60;;;9.70;99.90;;;;;;4961904;29;20121;-51
2022/05/31 01:00:26;;;;;;;10.13;5.70;;;9.70;99.90;;;;;;4945483;29;20059;-52
2022/05/31 01:02:52;;;;;;;9.95;5.47;;;9.80;99.90;;;;;;4961337;29;20130;-53
2022/05/31 01:05:19;;;;;;;9.30;5.55;;;9.80;99.90;;;;;;4964179;28;20047;-52
2022/05/31 01:07:46;;;;;;;9.15;5.95;;;9.80;99.90;;;;;;4961910;29;20039;-51
2022/05/31 01:10:13;;;;;;;9.02;5.35;;;9.80;99.90;;;;;;4962001;29;20055;-52
2022/05/31 01:12:42;;;;;;;10.75;5.75;;;9.80;99.90;;;;;;4961952;29;20079;-54
2022/05/31 01:15:09;;;;;;;10.88;5.60;;;9.80;99.90;;;;;;4961107;29;20047;-52
2022/05/31 01:17:35;;;;;;;9.90;6.15;;;9.80;99.90;;;;;;4947720;29;20408;-53
2022/05/31 01:20:05;;;;;;;9.82;6.65;;;9.80;99.90;;;;;;4942086;29;20043;-53
2022/05/31 01:22:43;;;;;;;9.40;6.38;;;9.90;99.90;;;;;;4959925;29;20059;-53
2022/05/31 01:25:21;;;;;;;9.50;6.47;;;9.90;99.90;;;;;;4961403;29;20058;-53
2022/05/31 01:28:12;;;;;;;9.50;6.03;;;9.90;99.90;;;;;;4943506;29;20050;-53
2022/05/31 01:31:02;;;;;;;10.85;6.65;;;9.90;99.90;;;;;;4955455;29;20035;-52
2022/05/31 01:33:34;;;;;;;9.35;5.88;;;9.90;99.90;;;;;;4961205;29;20594;-52
2022/05/31 01:36:30;;;;;;;9.68;5.93;;;9.90;99.90;;;;;;4953556;29;20079;-54
2022/05/31 01:39:04;;;;;;;8.75;6.22;;;9.90;99.90;;;;;;4957476;29;20065;-52
2022/05/31 01:41:42;;;;;;;9.25;6.07;;;9.90;99.90;;;;;;4930986;29;20039;-50
2022/05/31 01:44:13;;;;;;;9.23;6.28;;;9.90;99.90;;;;;;4961768;29;20443;-49
2022/05/31 01:46:39;;;;;;;10.38;6.00;;;9.90;99.90;;;;;;4944270;29;20119;-51
2022/05/31 01:49:08;;;;;;;10.98;6.22;;;10.00;99.90;;;;;;4958219;29;20040;-52
2022/05/31 01:51:40;;;;;;;8.90;6.28;;;9.90;99.90;;;;;;4954473;29;20055;-51
2022/05/31 01:54:08;;;;;;;9.20;6.20;;;9.90;99.90;;;;;;4957287;29;20640;-52
2022/05/31 01:56:35;;;;;;;8.85;5.97;;;9.90;99.90;;;;;;4961404;29;20615;-51
2022/05/31 01:59:03;;;;;;;10.15;6.40;;;9.90;99.90;;;;;;4960806;29;20148;-52
2022/05/31 02:01:31;;;;;;;8.75;5.80;;;9.90;99.90;;;;;;4961179;29;20055;-51
2022/05/31 02:03:59;;;;;;;10.25;6.10;;;9.90;99.90;;;;;;4964991;28;20065;-53
2022/05/31 02:06:27;;;;;;;9.07;6.30;;;9.90;99.90;;;;;;4980045;28;20100;-50
2022/05/31 02:08:52;;;;;;;8.93;5.78;;;9.90;99.90;;;;;;4973793;28;20063;-52
2022/05/31 02:11:18;;;;;;;10.18;6.03;;;9.90;99.90;;;;;;4950174;29;20051;-53
2022/05/31 02:13:45;;;;;;;9.50;5.60;;;9.90;99.90;;;;;;4947650;29;20040;-52
2022/05/31 02:16:12;;;;;;;9.38;6.05;;;9.90;99.90;;;;;;4924149;29;20535;-50
2022/05/31 02:21:23;;;;;;;10.43;6.35;;;9.90;99.90;;;;;;4958740;29;20035;-50
2022/05/31 02:23:48;;;;;;;9.20;6.25;;;10.00;99.90;;;;;;4960240;29;20054;-50
2022/05/31 02:26:14;;;;;;;9.07;5.70;;;9.90;99.90;;;;;;4935611;29;20047;-48
2022/05/31 02:28:40;;;;;;;8.43;6.03;;;9.80;99.90;;;;;;4956674;29;20106;-52
2022/05/31 02:31:06;;;;;;;8.52;5.75;;;9.90;99.90;;;;;;4961317;29;20043;-52
2022/05/31 02:33:31;;;;;;;10.77;5.30;;;9.90;99.90;;;;;;4960665;29;20050;-52
2022/05/31 02:35:57;;;;;;;8.35;5.40;;;9.90;99.90;;;;;;4960403;29;20043;-51
2022/05/31 02:38:22;;;;;;;9.38;6.10;;;9.90;99.90;;;;;;4960562;29;20136;-52
2022/05/31 02:40:48;;;;;;;8.75;6.05;;;9.90;99.90;;;;;;4957520;29;20270;-50
2022/05/31 02:43:14;;;;;;;10.30;5.93;;;9.90;99.90;;;;;;4942095;29;20447;-52
2022/05/31 02:45:39;;;;;;;8.27;5.70;;;9.90;99.90;;;;;;4942717;29;20440;-52
2022/05/31 02:48:05;;;;;;;9.02;5.70;;;9.90;99.90;;;;;;4942130;29;20948;-50
2022/05/31 02:50:31;;;;;;;8.77;5.05;;;9.90;99.90;;;;;;4947316;29;20043;-53
2022/05/31 02:52:57;;;;;;;9.15;5.53;;;9.90;99.90;;;;;;4932272;29;20047;-51
2022/05/31 02:55:22;;;;;;;9.43;5.57;;;9.90;99.90;;;;;;4950209;29;20039;-53
2022/05/31 02:57:48;;;;;;;8.82;5.57;;;9.80;99.90;;;;;;4959974;29;20090;-50
2022/05/31 03:00:14;;;;;;;8.68;5.30;;;9.90;99.90;;;;;;4960821;29;20051;-52
2022/05/31 03:02:40;;;;;;;8.13;5.32;;;9.90;99.90;;;;;;4960012;29;20047;-51
2022/05/31 03:05:06;;;;;;;10.23;5.70;;;9.90;99.90;;;;;;4941279;29;20058;-52
2022/05/31 03:07:32;;;;;;;11.32;6.15;;;9.90;99.90;;;;;;4959947;29;20051;-50
2022/05/31 03:09:57;;;;;;;10.18;6.43;;;9.90;99.90;;;;;;4960642;29;20123;-53
2022/05/31 03:12:25;;;;;;;9.52;5.60;;;9.90;99.90;;;;;;4950624;29;20048;-51
2022/05/31 03:15:05;;;;;;;9.13;6.03;;;9.90;99.90;;;;;;4960167;29;20463;-52
2022/05/31 03:17:36;;;;;;;8.98;5.60;;;9.90;99.90;;;;;;4945179;29;20047;-52
2022/05/31 03:20:12;;;;;;;9.55;5.55;;;9.90;99.90;;;;;;4963242;29;20495;-51
2022/05/31 03:22:43;;;;;;;9.38;6.22;;;9.90;99.90;;;;;;4962640;29;20121;-52
2022/05/31 03:25:20;;;;;;;11.65;6.07;;;9.90;99.90;;;;;;4963616;29;20640;-51
2022/05/31 03:27:47;;;;;;;10.30;6.45;;;9.90;99.90;;;;;;4945527;29;20051;-52
2022/05/31 03:30:14;;;;;;;8.68;5.75;;;9.90;99.90;;;;;;4953759;29;20043;-52
2022/05/31 03:32:41;;;;;;;9.02;5.95;;;9.80;99.90;;;;;;4963418;29;20043;-51
2022/05/31 03:35:07;;;;;;;9.40;6.03;;;9.90;99.90;;;;;;4964704;29;20051;-53
2022/05/31 03:37:33;;;;;;;12.18;6.30;;;9.90;99.90;;;;;;4962525;29;20078;-51
2022/05/31 03:39:59;;;;;;;9.23;5.88;;;9.90;99.90;;;;;;4963784;29;20226;-49
2022/05/31 03:42:25;;;;;;;8.75;5.57;;;9.90;99.90;;;;;;4953834;29;20356;-50
2022/05/31 03:44:54;;;;;;;8.95;5.97;;;9.90;99.90;;;;;;4963436;29;20071;-50
2022/05/31 03:47:19;;;;;;;10.18;6.00;;;10.00;99.90;;;;;;4934226;29;20051;-54
2022/05/31 03:49:45;;;;;;;10.23;6.00;;;10.00;99.90;;;;;;4943892;29;20047;-53
2022/05/31 03:52:11;;;;;;;8.60;5.88;;;10.00;99.90;;;;;;4945619;29;20052;-51
2022/05/31 03:54:37;;;;;;;11.00;5.45;;;10.00;99.90;;;;;;4951593;29;20051;-52
2022/05/31 03:57:07;;;;;;;7.90;5.53;;;10.00;99.90;;;;;;4963401;29;20051;-50
2022/05/31 03:59:37;;;;;;;10.10;5.38;;;10.00;99.90;;;;;;4944837;29;20491;-55
2022/05/31 04:02:04;;;;;;;9.40;5.15;;;10.00;99.90;;;;;;4943945;29;20297;-51
2022/05/31 04:04:29;;;;;;;7.88;5.13;;;10.00;99.90;;;;;;4960739;28;20042;-52
2022/05/31 04:06:55;;;;;;;9.65;5.57;;;10.10;99.90;;;;;;4982069;28;20133;-53
2022/05/31 04:09:20;;;;;;;8.93;4.43;;;10.10;99.90;;;;;;4960669;29;20070;-52
2022/05/31 04:11:46;;;;;;;8.25;5.03;;;10.10;99.90;;;;;;4962783;29;20054;-54
2022/05/31 04:14:12;;;;;;;8.20;4.93;;;10.20;99.90;;;;;;4963326;29;20406;-52
2022/05/31 04:16:37;;;;;;;7.15;4.55;;;10.20;99.90;;;;;;4962503;29;20050;-53
2022/05/31 04:19:04;;;;;;;8.40;5.18;;;10.10;99.90;;;;;;4956759;29;20039;-52
2022/05/31 04:21:30;;;;;;;7.35;4.45;;;10.20;99.90;;;;;;4963034;29;20067;-51
2022/05/31 04:23:59;;;;;;;9.80;4.28;;;10.20;99.90;;;;;;4956203;29;20050;-54
2022/05/31 04:26:30;;;;;;;8.00;4.38;;;10.20;99.90;;;;;;4944316;29;20043;-53
2022/05/31 04:28:57;;;;;;;7.63;4.97;;;10.20;99.90;;;;;;4958064;28;20050;-52
2022/05/31 04:31:23;;;;;;;7.00;3.92;;;10.20;99.90;;;;;;4962500;29;20283;-53
2022/05/31 04:33:49;;;;;;;6.78;3.92;;;10.20;99.90;;;;;;4943437;29;20052;-53
2022/05/31 04:36:17;;;;;;;7.47;4.60;;;10.30;99.90;;;;;;4957222;29;20082;-51
2022/05/31 04:38:44;;;;;;;7.70;4.55;;;10.20;99.90;;;;;;4963246;29;20043;-53
2022/05/31 04:41:28;;;;;;;8.00;4.18;;;10.20;99.90;;;;;;4951709;29;20075;-53
2022/05/31 04:43:55;;;;;;;7.55;4.75;;;10.30;99.90;;;;;;4957012;29;20054;-52
2022/05/31 04:46:24;;;;;;;8.85;4.82;;;10.30;99.90;;;;;;4962260;29;20047;-53
2022/05/31 04:48:50;;;;;;;8.48;4.57;;;10.30;99.90;;;;;;4962584;29;20047;-51
2022/05/31 04:51:16;;;;;;;8.23;4.43;;;10.40;99.90;;;;;;4940059;29;20083;-51
2022/05/31 04:53:42;;;;;;;7.60;5.13;;;10.30;99.90;;;;;;4950030;28;20118;-53
2022/05/31 04:56:11;;;;;;;10.90;5.03;;;10.30;99.90;;;;;;4962700;29;20596;-56
2022/05/31 04:58:37;;;;;;;8.60;5.07;;;10.30;99.90;;;;;;4957111;29;20051;-52
2022/05/31 05:01:06;;;;;;;8.00;5.28;;;10.40;99.90;;;;;;4952265;29;20051;-51
2022/05/31 05:03:33;;;;;;;9.90;4.78;;;10.30;99.90;;;;;;4948960;28;20519;-53
2022/05/31 05:06:01;;;;;;;8.10;5.63;;;10.40;99.90;;;;;;4964062;28;20510;-53
2022/05/31 05:08:27;;;;;;;10.88;5.57;;;10.40;99.90;;;;;;4981669;28;20038;-53
2022/05/31 05:10:53;;;;;;;8.30;5.68;;;10.50;99.90;;;;;;4966380;28;20055;-53
2022/05/31 05:13:18;;;;;;;8.90;5.07;;;10.50;99.90;;;;;;4962672;29;20039;-51
2022/05/31 05:15:44;;;;;;;9.40;5.30;;;10.50;99.90;;;;;;4944256;29;20055;-50
2022/05/31 05:18:10;;;;;;;9.32;5.45;;;10.50;99.90;;;;;;4962657;29;20047;-55
2022/05/31 05:20:38;;;;;;;8.15;5.03;;;10.50;99.90;;;;;;4960624;29;20098;-53
2022/05/31 05:23:04;;;;;;;8.55;5.53;;;10.60;99.90;;;;;;4945128;29;20073;-53
2022/05/31 05:25:31;;;;;;;11.27;5.85;;;10.60;99.90;;;;;;4956635;29;20070;-53
2022/05/31 05:27:57;;;;;;;10.38;6.10;;;10.60;99.90;;;;;;4942702;29;20048;-56
2022/05/31 05:30:41;;;;;;;16.63;6.32;;;10.70;99.90;;;;;;4948153;29;20059;-54
2022/05/31 05:33:10;;;;;;;11.73;6.55;;;10.70;99.90;;;;;;4951736;29;20054;-54
2022/05/31 05:35:36;;;;;;;10.20;6.43;;;10.80;99.90;;;;;;4950880;29;20058;-53
2022/05/31 05:38:01;;;;;;;9.98;6.43;;;10.80;99.90;;;;;;4957897;29;20103;-53
2022/05/31 05:40:27;;;;;;;8.68;6.20;;;10.80;99.90;;;;;;4957644;28;20085;-54
2022/05/31 05:42:53;;;;;;;12.60;6.55;;;10.90;99.90;;;;;;4939507;29;20123;-50
2022/05/31 05:45:19;;;;;;;9.15;5.90;;;10.90;99.90;;;;;;4938373;29;20532;-53
2022/05/31 05:47:45;;;;;;;11.30;6.50;;;11.00;99.90;;;;;;4951495;29;20099;-53
2022/05/31 05:50:11;;;;;;;10.05;5.88;;;11.00;99.90;;;;;;4957477;29;20043;-52
2022/05/31 05:52:39;;;;;;;10.07;6.15;;;11.10;99.90;;;;;;4952687;29;20071;-51
2022/05/31 05:55:06;;;;;;;9.57;6.53;;;11.10;99.90;;;;;;4946182;29;20051;-54
2022/05/31 05:57:31;;;;;;;10.80;6.18;;;11.10;99.90;;;;;;4951406;29;20047;-52
2022/05/31 05:59:57;;;;;;;10.93;6.50;;;11.10;99.90;;;;;;4958005;29;20098;-52
2022/05/31 06:02:31;;;;;;;12.68;6.90;;;11.20;99.90;;;;;;4950241;29;20055;-52
2022/05/31 06:05:12;;;;;;;12.82;6.97;;;11.20;99.90;;;;;;4970278;28;20081;-49
2022/05/31 06:08:05;;;;;;;9.60;5.95;;;11.30;99.90;;;;;;4940921;29;20058;-51
2022/05/31 06:10:41;;;;;;;10.45;6.30;;;11.30;99.90;;;;;;4957269;29;20070;-52
2022/05/31 06:13:16;;;;;;;11.52;5.82;;;11.50;99.90;;;;;;4958382;29;20050;-49
2022/05/31 06:15:50;;;;;;;13.85;5.88;;;11.40;99.90;;;;;;4940633;29;20062;-51
2022/05/31 06:18:22;;;;;;;10.23;5.70;;;11.40;99.90;;;;;;4939013;29;20061;-54
2022/05/31 06:20:52;;;;;;;9.02;6.20;;;11.50;99.90;;;;;;4938342;29;20047;-50
2022/05/31 06:23:19;;;;;;;9.90;5.78;;;11.50;99.90;;;;;;4945404;29;20074;-52
2022/05/31 06:25:45;;;;;;;9.40;5.80;;;11.60;99.90;;;;;;4950238;29;20063;-51
2022/05/31 06:28:10;;;;;;;9.80;5.95;;;11.60;99.90;;;;;;4948180;29;20063;-51
2022/05/31 06:30:37;;;;;;;12.27;6.07;;;11.70;99.90;;;;;;4945288;29;20529;-51
2022/05/31 06:33:05;;;;;;;10.27;5.43;;;11.70;99.90;;;;;;4956644;29;20057;-53
2022/05/31 06:35:30;;;;;;;10.02;5.93;;;11.70;99.90;;;;;;4939990;29;20040;-53
2022/05/31 06:37:56;;;;;;;10.98;6.63;;;11.80;99.90;;;;;;4922091;29;20047;-52
2022/05/31 06:40:22;;;;;;;8.98;6.00;;;11.90;99.90;;;;;;4960544;28;20042;-53
2022/05/31 06:42:48;;;;;;;11.07;6.40;;;11.90;99.90;;;;;;4968950;28;20042;-51
2022/05/31 06:45:13;;;;;;;10.50;5.72;;;12.00;99.90;;;;;;4968323;28;20048;-51
2022/05/31 06:47:39;;;;;;;11.05;6.38;;;11.90;99.90;;;;;;4972117;28;20050;-51
2022/05/31 06:50:05;;;;;;;9.23;5.57;;;12.00;99.90;;;;;;4976127;28;20046;-49
2022/05/31 06:58:00;;;;;;;11.00;5.63;;;12.00;99.90;;;;;;4942160;29;20854;-52
2022/05/31 07:00:26;;;;;;;9.23;5.32;;;12.10;99.90;;;;;;4958674;28;20038;-51
2022/05/31 07:02:54;;;;;;;9.88;5.00;;;12.20;99.90;;;;;;4970993;28;20051;-49
2022/05/31 07:05:20;;;;;;;9.55;5.40;;;12.20;99.90;;;;;;4946378;28;20098;-53
2022/05/31 07:07:47;;;;;;;9.65;4.45;;;12.30;99.90;;;;;;4951629;28;20095;-54
2022/05/31 07:10:13;;;;;;;9.18;5.38;;;12.30;99.90;;;;;;4960442;29;20047;-52
2022/05/31 07:12:40;;;;;;;9.32;4.97;;;12.30;99.90;;;;;;4961398;29;20069;-57
2022/05/31 07:15:06;;;;;;;8.10;4.82;;;12.40;99.90;;;;;;4954231;29;20064;-53
2022/05/31 07:17:32;;;;;;;9.38;4.75;;;12.40;99.90;;;;;;4949646;28;20047;-51
2022/05/31 07:19:58;;;;;;;9.70;5.28;;;12.50;99.90;;;;;;4970556;28;20521;-53
2022/05/31 07:22:24;;;;;;;10.68;4.80;;;12.60;99.90;;;;;;4960977;29;20070;-49
2022/05/31 07:24:50;;;;;;;9.02;4.97;;;12.70;99.90;;;;;;4960546;29;20134;-50
2022/05/31 07:27:15;;;;;;;10.93;5.55;;;12.90;99.90;;;;;;4942983;29;20067;-50
2022/05/31 07:29:42;;;;;;;8.85;5.20;;;13.00;99.90;;;;;;4960645;29;20061;-51
2022/05/31 07:32:08;;;;;;;9.35;4.72;;;13.20;99.90;;;;;;4942826;28;20061;-53
2022/05/31 07:34:34;;;;;;;10.18;4.78;;;13.30;99.90;;;;;;4960733;29;20039;-53
2022/05/31 07:37:00;;;;;;;8.43;4.20;;;13.50;99.90;;;;;;4946876;28;20487;-49
2022/05/31 07:39:26;;;;;;;10.30;4.88;;;13.60;99.90;;;;;;4944081;28;20272;-50
2022/05/31 07:41:54;;;;;;;9.82;4.20;;;13.60;99.90;;;;;;4968981;28;20125;-52
2022/05/31 07:44:21;;;;;;;7.30;4.13;;;13.80;99.90;;;;;;4970301;28;20074;-52
2022/05/31 07:46:47;;;;;;;9.52;4.07;;;13.90;99.90;;;;;;4966440;28;20050;-51
2022/05/31 07:49:16;;;;;;;7.63;3.30;;;14.00;99.90;;;;;;4968684;28;20043;-50
2022/05/31 07:51:42;;;;;;;8.68;4.00;;;14.10;99.90;;;;;;4967361;28;20158;-52
2022/05/31 07:54:08;;;;;;;9.05;4.68;;;14.20;99.90;;;;;;4969204;28;20081;-52
2022/05/31 07:56:33;;;;;;;11.82;5.15;;;14.00;99.90;;;;;;4969249;28;20086;-53
2022/05/31 07:58:59;;;;;;;9.02;4.20;;;14.20;99.90;;;;;;4961954;28;20225;-52
2022/05/31 08:01:25;;;;;;;8.23;4.28;;;13.90;99.90;;;;;;4942714;29;20047;-52
2022/05/31 08:03:55;;;;;;;6.47;3.50;;;14.20;99.90;;;;;;4963041;28;20054;-53
2022/05/31 08:06:23;;;;;;;9.23;4.47;;;14.10;99.90;;;;;;4968737;28;20051;-54
2022/05/31 08:08:50;;;;;;;8.45;3.70;;;14.10;99.90;;;;;;4944488;28;20079;-52
2022/05/31 08:11:23;;;;;;;7.80;3.70;;;14.30;99.90;;;;;;4967091;28;20051;-51
2022/05/31 08:13:49;;;;;;;8.88;3.92;;;14.40;99.90;;;;;;4968660;28;20488;-52
2022/05/31 08:16:17;;;;;;;8.85;3.92;;;14.20;99.90;;;;;;4967822;28;20059;-50
2022/05/31 08:18:45;;;;;;;8.90;4.10;;;14.40;99.90;;;;;;4968455;28;20070;-51
2022/05/31 08:21:14;;;;;;;8.10;4.40;;;14.60;99.90;;;;;;4956233;29;20571;-50
2022/05/31 08:23:40;;;;;;;7.57;4.78;;;14.80;99.90;;;;;;4946423;29;20055;-52
2022/05/31 08:26:07;;;;;;;8.25;4.22;;;14.60;99.90;;;;;;4954551;29;20060;-50
2022/05/31 08:28:33;;;;;;;8.20;3.90;;;14.70;99.90;;;;;;4958666;29;20059;-52
2022/05/31 08:31:02;;;;;;;8.43;4.25;;;14.60;99.90;;;;;;4959797;29;20086;-51
2022/05/31 08:33:28;;;;;;;8.82;3.90;;;14.70;99.90;;;;;;4959066;29;20089;-55
2022/05/31 08:35:55;;;;;;;8.27;4.38;;;14.80;99.90;;;;;;4941226;29;20055;-51
2022/05/31 08:38:20;;;;;;;9.57;4.15;;;14.80;99.90;;;;;;4959180;29;20047;-51
2022/05/31 08:41:09;;;;;;;8.93;4.25;;;14.90;99.90;;;;;;4957243;29;20602;-52
2022/05/31 08:44:04;;;;;;;7.30;4.18;;;14.90;99.90;;;;;;4948856;29;20062;-53
2022/05/31 08:47:06;;;;;;;8.85;5.20;;;15.10;99.90;;;;;;4958228;29;20055;-51
2022/05/31 08:52:49;;;;;;;7.22;3.58;;;14.90;99.90;;;;;;4951890;29;20067;-52
2022/05/31 08:58:26;;;;;;;9.93;3.80;;;15.10;99.90;;;;;;4949145;29;20052;-52
2022/05/31 09:00:54;;;;;;;7.78;4.03;;;15.30;99.90;;;;;;4957575;29;20059;-50
2022/05/31 09:03:24;;;;;;;8.75;4.40;;;15.30;99.90;;;;;;4922502;29;20067;-51
2022/05/31 09:05:58;;;;;;;9.93;4.43;;;15.40;99.90;;;;;;4977409;28;20117;-53
2022/05/31 09:08:37;;;;;;;9.73;3.83;;;15.50;99.90;;;;;;4978286;28;20049;-50
2022/05/31 09:11:15;;;;;;;8.40;3.63;;;15.50;99.90;;;;;;4977078;28;20057;-50
2022/05/31 09:13:50;;;;;;;7.65;3.90;;;15.60;99.90;;;;;;4948835;29;20039;-50
2022/05/31 09:16:24;;;;;;;8.98;3.72;;;15.70;99.90;;;;;;4938755;29;20054;-52
2022/05/31 09:19:00;;;;;;;9.15;3.50;;;15.70;99.90;;;;;;4920752;29;20055;-50
2022/05/31 09:22:00;;;;;;;7.88;4.50;;;16.00;99.90;;;;;;4957397;29;20089;-51
2022/05/31 09:24:26;;;;;;;6.82;3.13;;;15.80;99.90;;;;;;4935750;29;20115;-50
2022/05/31 09:27:24;;;;;;;7.80;2.63;;;16.00;99.90;;;;;;4949619;29;20055;-52
2022/05/31 09:30:10;;;;;;;7.28;2.78;;;16.20;99.90;;;;;;4957858;29;20091;-51
2022/05/31 09:32:58;;;;;;;6.85;3.33;;;16.40;99.90;;;;;;4949769;29;20144;-52
2022/05/31 09:35:36;;;;;;;8.07;3.03;;;16.30;99.90;;;;;;4939001;29;20047;-53
2022/05/31 09:38:19;;;;;;;6.45;2.95;;;16.50;99.90;;;;;;4938586;29;20047;-53
2022/05/31 09:40:48;;;;;;;7.05;3.22;;;16.90;99.90;;;;;;4938267;29;20079;-53
2022/05/31 09:43:26;;;;;;;8.82;3.38;;;17.20;99.90;;;;;;4940477;29;20133;-52
2022/05/31 09:46:03;;;;;;;7.00;1.92;;;17.00;99.90;;;;;;4957462;29;20066;-52
2022/05/31 09:48:29;;;;;;;8.93;4.43;;;16.90;99.90;;;;;;4940796;29;20432;-52
2022/05/31 09:51:15;;;;;;;8.93;4.45;;;16.80;99.90;;;;;;4958064;29;20047;-51
2022/05/31 09:57:27;;;;;;;8.30;3.95;;;16.90;99.90;;;;;;4953105;29;20123;-52
2022/05/31 09:59:27;;;;;;;8.60;4.22;;;17.00;99.90;;;;;;4940038;29;20063;-53
2022/05/31 10:01:53;;;;;;;7.63;4.47;;;16.80;99.90;;;;;;4938748;29;20067;-50
2022/05/31 10:04:28;;;;;;;9.00;3.95;;;16.80;99.90;;;;;;4963066;28;20043;-52
2022/05/31 10:07:05;;;;;;;8.23;3.50;;;16.70;99.90;;;;;;4976456;28;20086;-49
2022/05/31 10:09:36;;;;;;;9.43;4.78;;;16.90;99.90;;;;;;4939209;29;20047;-53
2022/05/31 10:12:27;;;;;;;10.77;5.22;;;16.70;99.90;;;;;;4944747;29;20586;-53
2022/05/31 10:14:54;;;;;;;9.07;5.03;;;16.60;99.90;;;;;;4945683;29;20052;-52
2022/05/31 10:18:00;;;;;;;10.85;5.63;;;16.80;99.90;;;;;;4936007;29;20171;-50
2022/05/31 10:20:26;;;;;;;10.98;5.22;;;17.00;99.90;;;;;;4897461;29;20052;-49
2022/05/31 10:22:54;;;;;;;9.52;4.30;;;17.20;99.90;;;;;;4897100;29;20059;-51
2022/05/31 10:25:35;;;;;;;7.70;4.38;;;17.40;99.90;;;;;;4933272;28;20059;-49
2022/05/31 10:28:09;;;;;;;8.90;4.50;;;17.40;99.90;;;;;;4965933;28;20083;-50
2022/05/31 10:30:36;;;;;;;8.13;4.05;;;17.40;99.90;;;;;;4964811;28;20054;-52
2022/05/31 10:33:10;;;;;;;8.15;4.78;;;17.20;99.90;;;;;;4963456;28;20108;-50
2022/05/31 10:35:43;;;;;;;8.88;4.47;;;16.80;99.90;;;;;;4964196;28;20051;-52
2022/05/31 10:38:18;;;;;;;7.72;4.50;;;16.70;99.90;;;;;;4965993;28;20078;-51
2022/05/31 10:40:54;;;;;;;6.80;4.18;;;16.50;99.90;;;;;;4965004;28;20491;-50
2022/05/31 10:43:50;;;;;;;11.27;5.55;;;16.10;99.90;;;;;;4966483;28;20507;-52
2022/05/31 10:46:29;;;;;;;9.93;4.75;;;16.10;99.90;;;;;;4962870;28;20040;-52
2022/05/31 10:49:05;;;;;;;9.25;4.93;;;16.00;99.90;;;;;;4938817;29;20055;-52
2022/05/31 10:51:53;;;;;;;10.05;5.10;;;16.00;99.90;;;;;;4957857;29;20070;-52
2022/05/31 10:54:53;;;;;;;8.98;4.90;;;16.00;99.90;;;;;;4954384;29;20051;-50
2022/05/31 10:57:40;;;;;;;8.75;4.70;;;15.80;99.90;;;;;;4949941;29;20066;-50
2022/05/31 11:00:36;;;;;;;8.27;4.45;;;15.80;99.90;;;;;;4938121;29;20061;-54
2022/05/31 11:03:32;;;;;;;9.85;4.40;;;15.70;99.90;;;;;;4927155;29;20064;-50
2022/05/31 11:06:07;;;;;;;8.30;3.85;;;15.80;99.90;;;;;;4916779;29;20059;-52
2022/05/31 11:12:15;;;;;;;10.13;3.50;;;15.80;99.90;;;;;;4906920;29;20056;-51
2022/05/31 11:14:54;;;;;;;9.00;4.78;;;15.90;99.90;;;;;;4905661;29;20053;-50
2022/05/31 11:17:29;;;;;;;9.68;4.25;;;15.80;99.90;;;;;;4953032;28;20328;-50
2022/05/31 11:20:09;;;;;;;13.50;5.38;;;15.90;99.90;;;;;;4941817;28;20055;-52
2022/05/31 11:22:59;;;;;;;7.57;3.72;;;15.90;99.90;;;;;;4964695;28;20114;-52
2022/05/31 11:25:30;;;;;;;9.82;4.18;;;15.90;99.90;;;;;;4964820;28;20039;-49
2022/05/31 11:27:59;;;;;;;9.20;4.68;;;16.10;99.90;;;;;;4966226;28;20047;-51
2022/05/31 11:30:39;;;;;;;8.30;4.03;;;16.00;99.90;;;;;;4963334;28;20095;-51
2022/05/31 11:33:11;;;;;;;8.55;4.20;;;16.20;99.90;;;;;;4956757;29;20054;-53
2022/05/31 11:35:53;;;;;;;6.43;3.65;;;16.10;99.90;;;;;;4956053;28;20043;-53
2022/05/31 11:38:51;;;;;;;9.00;4.10;;;16.20;99.90;;;;;;4964521;28;20054;-51
2022/05/31 11:41:26;;;;;;;9.88;4.03;;;16.30;99.90;;;;;;4960147;29;20055;-50
2022/05/31 11:44:20;;;;;;;7.80;3.72;;;16.50;99.90;;;;;;4947649;29;20059;-52
2022/05/31 11:47:11;;;;;;;8.85;4.43;;;16.50;99.90;;;;;;4923687;29;20665;-54
2022/05/31 11:49:50;;;;;;;7.20;3.78;;;16.60;99.90;;;;;;4934116;29;20052;-50
2022/05/31 11:52:34;;;;;;;9.18;4.15;;;16.80;99.90;;;;;;4941747;29;20086;-54
2022/05/31 11:55:25;;;;;;;8.73;4.30;;;16.80;99.90;;;;;;4954957;28;20483;-51
2022/05/31 11:58:16;;;;;;;7.78;4.18;;;16.80;99.90;;;;;;4948396;29;20063;-50
2022/05/31 12:00:54;;;;;;;8.85;4.38;;;16.90;99.90;;;;;;4959799;29;20047;-52
2022/05/31 12:03:45;;;;;;;9.02;4.30;;;17.10;99.90;;;;;;4947065;29;20055;-53
2022/05/31 12:06:50;;;;;;;9.27;3.80;;;17.50;99.90;;;;;;4942761;29;20036;-49
2022/05/31 12:09:25;;;;;;;9.45;4.38;;;18.00;99.90;;;;;;4940625;29;20117;-48
2022/05/31 12:12:06;;;;;;;9.05;4.50;;;18.10;99.90;;;;;;4957287;29;20130;-51
2022/05/31 12:14:38;;;;;;;8.85;4.25;;;18.40;99.90;;;;;;4962120;29;20043;-48
2022/05/31 12:17:03;;;;;;;;;;;18.30;99.90;;;;;;4962985;29;20051;-51
2022/05/31 12:19:52;;;;;;;7.60;3.67;;;18.20;99.90;;;;;;4962325;29;19926;-52
2022/05/31 12:22:21;;;;;;;7.85;3.80;;;18.20;99.90;;;;;;4947119;29;20444;-53
2022/05/31 12:24:54;;;;;;;7.70;3.60;;;18.10;99.90;;;;;;4942215;29;20056;-49
2022/05/31 12:27:47;;;;;;;7.55;3.83;;;18.20;99.90;;;;;;4944761;29;20547;-51
2022/05/31 12:30:19;;;;;;;10.02;4.65;;;18.20;99.90;;;;;;4937272;29;20078;-52
2022/05/31 12:32:48;;;;;;;8.35;4.22;;;17.80;99.90;;;;;;4958375;29;20062;-51
2022/05/31 12:35:32;;;;;;;10.02;4.38;;;17.80;99.90;;;;;;4953443;29;20047;-51
2022/05/31 12:38:01;;;;;;;8.73;4.40;;;17.50;99.90;;;;;;4931836;29;20047;-51
2022/05/31 12:40:32;;;;;;;10.60;4.80;;;17.20;99.90;;;;;;4959363;29;20083;-52
2022/05/31 12:43:06;;;;;;;9.15;4.20;;;17.30;99.90;;;;;;4959977;28;20113;-52
2022/05/31 12:45:34;;;;;;;8.88;4.03;;;17.20;99.90;;;;;;4970499;28;20067;-51
2022/05/31 12:48:09;;;;;;;11.63;5.15;;;17.40;99.90;;;;;;4972397;28;20046;-51
2022/05/31 12:50:54;;;;;;;8.85;4.88;;;16.90;99.90;;;;;;4967030;28;20842;-51
2022/05/31 12:53:36;;;;;;;8.65;4.55;;;16.80;99.90;;;;;;4965043;28;20043;-52
2022/05/31 12:56:01;;;;;;;;;;;16.90;99.90;;;;;;4962892;29;20043;-54
2022/05/31 12:58:28;;;;;;;9.23;4.03;;;16.90;99.90;;;;;;4961621;29;19998;-53
2022/05/31 13:00:59;;;;;;;7.88;4.95;;;16.80;99.90;;;;;;4965202;28;20084;-52
2022/05/31 13:03:34;;;;;;;7.35;4.38;;;16.80;99.90;;;;;;4972365;28;20747;-53
2022/05/31 13:06:02;;;;;;;9.02;4.55;;;16.80;99.90;;;;;;4970806;28;20051;-54
2022/05/31 13:08:55;;;;;;;7.93;4.30;;;16.80;99.90;;;;;;4972506;28;20035;-54
2022/05/31 13:20:05;;;;;;;9.50;4.50;;;16.90;99.90;;;;;;4933603;29;20083;-54
2022/05/31 13:22:37;;;;;;;7.35;3.70;;;16.90;99.90;;;;;;4942899;29;20047;-54
2022/05/31 13:25:14;;;;;;;8.30;3.72;;;16.90;99.90;;;;;;4942666;29;20575;-50
2022/05/31 13:27:40;;;;;;;9.80;4.30;;;16.80;99.90;;;;;;4948739;29;20051;-54
2022/05/31 13:30:11;;;;;;;8.98;4.05;;;16.80;99.90;;;;;;4942906;29;20039;-53
2022/05/31 13:32:38;;;;;;;6.28;3.42;;;16.60;99.90;;;;;;4941787;29;20082;-53
2022/05/31 13:35:20;;;;;;;7.28;3.83;;;16.70;99.90;;;;;;4925705;29;20074;-53
2022/05/31 13:37:51;;;;;;;;;;;16.80;99.90;;;;;;4941480;29;20052;-55
2022/05/31 13:40:23;;;;;;;7.50;3.70;;;17.00;99.90;;;;;;4942126;29;19926;-53
2022/05/31 13:42:50;;;;;;;8.23;3.85;;;16.90;99.90;;;;;;4957737;29;20055;-52